Flight Track Log - Related Links

Times and Time Zones

All times are in EDT time to prevent confusion due to time zone crossing. See the UAL252 flight status page for this flight to view local times or setup timezone preferences in your user account.

Time Position Orientation Groundspeed Altitude Reporting Facility
EDT Latitude Longitude Course Direction KTS MPH feet Rate Location/Type
Sat 01:11:27 PM 29.9626 -95.3432 157° South 167 192 700  Level FlightAware ADS-B
Sat 01:11:32 PM 29.9588 -95.3427 173° South 168 193 1,000 2,727 Climbing FlightAware ADS-B
Sat 01:11:38 PM 29.9541 -95.3433 186° South 174 200 1,200 2,000 Climbing FlightAware ADS-B
Sat 01:11:44 PM 29.9496 -95.3455 203° Southwest 180 207 1,400 1,800 Climbing FlightAware ADS-B
Sat 01:11:48 PM 29.9468 -95.3478 215° Southwest 187 215 1,500 1,500 Climbing FlightAware ADS-B
Sat 01:11:52 PM 29.9444 -95.3502 221° Southwest 192 221 1,600 1,333 Climbing FlightAware ADS-B
Sat 01:11:57 PM 29.9409 -95.3544 226° Southwest 204 235 1,700 1,636 Climbing FlightAware ADS-B
Sat 01:12:03 PM 29.9368 -95.3603 231° Southwest 218 251 1,900 2,824 Climbing FlightAware ADS-B
Sat 01:12:14 PM 29.9300 -95.3708 233° Southwest 226 260 2,500 2,889 Climbing FlightAware ADS-B
Sat 01:12:30 PM 29.9198 -95.3868 234° Southwest 244 281 3,200 2,063 Climbing FlightAware ADS-B
Sat 01:12:46 PM 29.9086 -95.4040 233° Southwest 268 308 3,600 968 Climbing FlightAware ADS-B
Sat 01:13:01 PM 29.8970 -95.4215 233° Southwest 263 303 3,700 387 Climbing FlightAware ADS-B
Sat 01:13:17 PM 29.8856 -95.4384 232° Southwest 258 297 3,800 176 Climbing FlightAware ADS-B
Sat 01:13:35 PM 29.8716 -95.4589 232° Southwest 261 300 3,800 414 Level FlightAware ADS-B
Sat 01:13:46 PM 29.8640 -95.4700 232° Southwest 263 303 4,000 2,625 Climbing FlightAware ADS-B
Sat 01:14:07 PM 29.8478 -95.4940 232° Southwest 264 304 5,200 3,474 Climbing FlightAware ADS-B
Sat 01:14:24 PM 29.8350 -95.5136 233° Southwest 265 305 6,200 3,677 Climbing FlightAware ADS-B
Sat 01:14:38 PM 29.8243 -95.5296 232° Southwest 278 320 7,100 3,818 Climbing FlightAware ADS-B
Sat 01:14:46 PM 29.8191 -95.5399 240° Southwest 280 322 7,600 3,692 Climbing FlightAware ADS-B
Sat 01:14:51 PM 29.8169 -95.5467 250° West 282 325 7,900 3,750 Climbing FlightAware ADS-B
Sat 01:14:54 PM 29.8159 -95.5512 256° West 283 326 8,100 4,000 Climbing FlightAware ADS-B
Sat 01:14:57 PM 29.8152 -95.5566 262° West 284 327 8,300 4,000 Climbing FlightAware ADS-B
Sat 01:15:00 PM 29.8149 -95.5612 266° West 286 329 8,500 3,000 Climbing FlightAware ADS-B
Sat 01:15:05 PM 29.8150 -95.5680 271° West 288 331 8,700 3,000 Climbing FlightAware ADS-B
Sat 01:15:08 PM 29.8156 -95.5735 277° West 289 333 8,900 4,286 Climbing FlightAware ADS-B
Sat 01:15:12 PM 29.8167 -95.5789 283° West 292 336 9,200 3,429 Climbing FlightAware ADS-B
Sat 01:15:15 PM 29.8178 -95.5834 286° West 294 338 9,300 3,000 Climbing FlightAware ADS-B
Sat 01:15:18 PM 29.8195 -95.5886 291° West 295 339 9,500 4,286 Climbing FlightAware ADS-B
Sat 01:15:22 PM 29.8216 -95.5944 293° West 296 341 9,800 2,195 Climbing FlightAware ADS-B
Sat 01:15:59 PM 29.8494 -95.6488 301° West 345 397 11,000 2,206 Climbing FlightAware ADS-B
Sat 01:16:30 PM 29.8756 -95.6990 301° West 371 427 12,300 2,361 Climbing FlightAware ADS-B
Sat 01:18:01 PM 29.9632 -95.8620 302° West 408 470 15,800 2,265 Climbing FlightAware ADS-B
Sat 01:19:01 PM 30.0224 -95.9746 301° West 404 465 18,000 2,308 Climbing FlightAware ADS-B
Sat 01:19:32 PM 30.0524 -96.0320 301° West 419 482 19,300 2,769 Climbing FlightAware ADS-B
Sat 01:19:40 PM 30.0601 -96.0477 300° West 417 480 19,800 3,130 Climbing FlightAware ADS-B
Sat 01:19:55 PM 30.0718 -96.0786 292° West 417 480 20,500 2,769 Climbing FlightAware ADS-B
Sat 01:20:32 PM 30.0858 -96.1604 280° West 422 486 22,200 2,418 Climbing FlightAware ADS-B
Sat 01:21:02 PM 30.0961 -96.2291 280° West 437 503 23,200 2,200 Climbing FlightAware ADS-B
Sat 01:21:32 PM 30.1065 -96.2984 280° West 442 509 24,400 2,164 Climbing FlightAware ADS-B
Sat 01:22:03 PM 30.1172 -96.3699 280° West 453 521 25,400 1,884 Climbing FlightAware ADS-B
Sat 01:23:33 PM 30.1519 -96.5915 280° West 475 547 28,200 1,835 Climbing FlightAware ADS-B
Sat 01:24:04 PM 30.1636 -96.6682 280° West 485 558 29,100 2,424 Climbing FlightAware ADS-B
Sat 01:26:04 PM 30.2217 -96.9618 284° West 455 524 34,300 2,098 Climbing FlightAware ADS-B
Sat 01:28:10 PM 30.2871 -97.2484 285° West 437 503 37,700 1,162 Climbing FlightAware ADS-B
Sat 01:29:15 PM 30.3200 -97.3956 284° West 435 501 38,000 140 Climbing FlightAware ADS-B
Sat 01:30:19 PM 30.3513 -97.5368 284° West 430 495 38,000  Level FlightAware ADS-B
Sat 01:30:47 PM 30.3651 -97.5996 284° West 430 495 38,000  Level FlightAware ADS-B
Sat 01:30:52 PM 30.3675 -97.6106 284° West 430 495 38,000  Level FlightAware ADS-B
Sat 01:31:18 PM 30.3803 -97.6682 284° West 430 495 38,000  Level FlightAware ADS-B
Sat 01:31:31 PM 30.3865 -97.6970 284° West 430 495 38,000  Level FlightAware ADS-B
Sat 01:31:49 PM 30.3954 -97.7370 284° West 429 494 38,000  Level FlightAware ADS-B
Sat 01:32:01 PM 30.4016 -97.7657 284° West 429 494 38,000  Level FlightAware ADS-B
Sat 01:32:34 PM 30.4177 -97.8386 284° West 430 495 38,000  Level FlightAware ADS-B
Sat 01:32:46 PM 30.4244 -97.8648 287° West 429 494 38,000  Level FlightAware ADS-B
Sat 01:33:21 PM 30.4460 -97.9417 288° West 430 495 38,000  Level FlightAware ADS-B
Sat 01:33:52 PM 30.4646 -98.0095 288° West 431 496 38,000  Level FlightAware ADS-B
Sat 01:34:21 PM 30.4813 -98.0715 287° West 431 496 38,000  Level FlightAware ADS-B
Sat 01:34:34 PM 30.4891 -98.1012 287° West 431 496 38,000  Level FlightAware ADS-B
Sat 01:35:02 PM 30.5052 -98.1621 287° West 432 497 38,000  Level FlightAware ADS-B
Sat 01:35:06 PM 30.5080 -98.1727 287° West 432 497 38,000  Level FlightAware ADS-B
Sat 01:35:32 PM 30.5226 -98.2284 287° West 433 498 38,000  Level FlightAware ADS-B
Sat 01:36:03 PM 30.5411 -98.2989 287° West 434 499 38,000  Level FlightAware ADS-B
Sat 01:36:53 PM 30.5690 -98.4070 287° West 433 498 38,000  Level FlightAware ADS-B
Sat 01:37:31 PM 30.5920 -98.4940 287° West 433 498 38,000  Level FlightAware ADS-B
Sat 01:38:12 PM 30.6160 -98.5830 287° West 434 499 38,000  Level FlightAware ADS-B
Sat 01:38:51 PM 30.6340 -98.6560 286° West 434 499 38,000  Level FlightAware ADS-B
Sat 01:39:51 PM 30.6080 -98.5530 106° East 434 499 38,000  Level FlightAware ADS-B
Sat 01:41:03 PM 30.7150 -98.9640 287° West 432 497 38,000  Level FlightAware ADS-B
Sat 01:41:41 PM 30.7360 -99.0470 286° West 431 496 38,000  Level FlightAware ADS-B
Sat 01:42:25 PM 30.7610 -99.1460 286° West 430 495 38,000  Level FlightAware ADS-B
Sat 01:43:09 PM 30.7860 -99.2400 287° West 429 494 38,000  Level FlightAware ADS-B
Sat 01:43:47 PM 30.8080 -99.3280 286° West 429 494 38,000  Level FlightAware ADS-B
Sat 01:44:35 PM 30.8350 -99.4330 287° West 428 493 38,000  Level FlightAware ADS-B
Sat 01:45:15 PM 30.8570 -99.5220 286° West 428 493 38,000  Level FlightAware ADS-B
Sat 01:45:57 PM 30.8810 -99.6140 287° West 428 493 38,000  Level FlightAware ADS-B
Sat 01:46:37 PM 30.9030 -99.7030 286° West 427 491 38,000  Level FlightAware ADS-B
Sat 01:47:19 PM 30.9260 -99.7950 286° West 427 491 38,000  Level FlightAware ADS-B
Sat 01:48:03 PM 30.9500 -99.8910 286° West 426 490 38,000  Level FlightAware ADS-B
Sat 01:48:45 PM 30.9740 -99.9850 287° West 425 489 38,000  Level FlightAware ADS-B
Sat 01:49:23 PM 30.9950 -100.0690 286° West 425 489 38,000  Level FlightAware ADS-B
Sat 01:50:09 PM 31.0190 -100.1690 286° West 426 490 38,000  Level FlightAware ADS-B
Sat 01:50:50 PM 31.0420 -100.2580 287° West 425 489 38,000  Level FlightAware ADS-B
Sat 01:51:33 PM 31.0650 -100.3540 286° West 425 489 38,000  Level FlightAware ADS-B
Sat 01:52:17 PM 31.0890 -100.4500 286° West 424 488 38,000  Level FlightAware ADS-B
Sat 01:52:55 PM 31.1100 -100.5350 286° West 424 488 38,000  Level FlightAware ADS-B
Sat 01:53:41 PM 31.1350 -100.6360 286° West 425 489 38,000  Level FlightAware ADS-B
Sat 01:54:21 PM 31.1560 -100.7220 286° West 426 490 38,000  Level FlightAware ADS-B
Sat 01:55:02 PM 31.1780 -100.8130 286° West 427 491 38,000  Level FlightAware ADS-B
Sat 01:55:43 PM 31.2000 -100.9040 286° West 426 490 38,000  Level FlightAware ADS-B
Sat 01:56:23 PM 31.2210 -100.9940 285° West 426 490 38,000  Level FlightAware ADS-B
Sat 01:57:09 PM 31.2450 -101.0930 286° West 427 491 38,000  Level FlightAware ADS-B
Sat 01:57:53 PM 31.2690 -101.1920 286° West 427 491 38,000  Level FlightAware ADS-B
Sat 01:58:33 PM 31.2900 -101.2800 286° West 427 491 38,000  Level FlightAware ADS-B
Sat 01:59:15 PM 31.3120 -101.3750 285° West 427 491 38,000 525 Level FlightAware ADS-B
Sat 01:59:53 PM 31.3330 -101.4600 286° West 425 489 38,700 1,147 Climbing FlightAware ADS-B
Sat 02:00:23 PM 31.3480 -101.5260 285° West 422 486 39,300 1,054 Climbing FlightAware ADS-B
Sat 02:01:07 PM 31.3710 -101.6210 286° West 415 478 40,000 488 Climbing FlightAware ADS-B
Sat 02:01:49 PM 31.3920 -101.7120 285° West 415 478 40,000  Level FlightAware ADS-B
Sat 02:02:27 PM 31.4110 -101.7940 285° West 415 478 40,000  Level FlightAware ADS-B
Sat 02:03:15 PM 31.4350 -101.8970 285° West 413 475 40,000  Level FlightAware ADS-B
Sat 02:03:55 PM 31.4550 -101.9840 285° West 412 474 40,000  Level FlightAware ADS-B
Sat 02:04:39 PM 31.4770 -102.0780 285° West 411 473 40,000  Level FlightAware ADS-B
Sat 02:05:21 PM 31.4980 -102.1680 285° West 411 473 40,000  Level FlightAware ADS-B
Sat 02:05:57 PM 31.5150 -102.2440 285° West 409 471 40,000  Level FlightAware ADS-B
Sat 02:06:43 PM 31.5390 -102.3450 286° West 409 471 40,000  Level FlightAware ADS-B
Sat 02:07:27 PM 31.5590 -102.4360 284° West 409 471 40,000  Level FlightAware ADS-B
Sat 02:08:07 PM 31.5790 -102.5240 285° West 410 472 40,000  Level FlightAware ADS-B
Sat 02:08:47 PM 31.5990 -102.6090 285° West 410 472 40,000  Level FlightAware ADS-B
Sat 02:09:27 PM 31.6140 -102.6830 283° West 410 472 40,000  Level FlightAware ADS-B
Sat 02:10:14 PM 31.6330 -102.7690 285° West 410 472 40,000  Level FlightAware ADS-B
Sat 02:10:48 PM 31.6460 -102.8320 284° West 410 472 40,000  Level FlightAware ADS-B
Sat 02:11:35 PM 31.6640 -102.9180 284° West 410 472 40,000  Level FlightAware ADS-B
Sat 02:12:11 PM 31.6780 -102.9840 284° West 410 472 40,000  Level FlightAware ADS-B
Sat 02:13:00 PM 31.6970 -103.0740 284° West 410 472 40,000  Level FlightAware ADS-B
Sat 02:13:35 PM 31.7110 -103.1390 284° West 410 472 40,000  Level FlightAware ADS-B
Sat 02:14:24 PM 31.7300 -103.2290 284° West 410 472 40,000  Level FlightAware ADS-B
Sat 02:15:01 PM 31.7450 -103.2970 285° West 410 472 40,000  Level FlightAware ADS-B
Sat 02:16:04 PM 31.7690 -103.4130 284° West 410 472 40,000  Level FlightAware ADS-B
Sat 02:16:41 PM 31.7840 -103.4810 285° West 410 472 40,000  Level FlightAware ADS-B
Sat 02:17:19 PM 31.7980 -103.5510 283° West 410 472 40,000  Level FlightAware ADS-B
Sat 02:18:08 PM 31.8180 -103.6410 285° West 410 472 40,000  Level FlightAware ADS-B
Sat 02:18:44 PM 31.8320 -103.7070 284° West 410 472 40,000  Level FlightAware ADS-B
Sat 02:20:10 PM 31.9258 -104.0839 284° West 418 481 40,000 -41 Level Albuquerque Center
Sat 02:21:11 PM 31.9533 -104.2194 283° West 416 479 39,900 -49 Descending Albuquerque Center
Sat 02:22:13 PM 31.9803 -104.3506 284° West 415 478 39,900 48 Level Albuquerque Center
Sat 02:23:15 PM 32.0072 -104.4822 284° West 414 476 40,000 49 Climbing Albuquerque Center
Sat 02:24:16 PM 32.0353 -104.6147 284° West 418 481 40,000 -49 Level Albuquerque Center
Sat 02:25:18 PM 32.0631 -104.7478 284° West 419 482 39,900  Descending Albuquerque Center
Sat 02:26:19 PM 32.0903 -104.8800 284° West 418 481 40,000  Climbing Albuquerque Center
Sat 02:27:21 PM 32.1222 -105.0383 283° West 416 479 39,900  Descending Albuquerque Center
Sat 02:28:23 PM 32.1494 -105.1697 284° West 415 478 40,000 15 Climbing Albuquerque Center
Sat 02:34:12 PM 32.3040 -105.9400 284° West 409 471 40,000  Level FlightAware ADS-B
Sat 02:34:52 PM 32.3190 -106.0200 283° West 409 471 40,000  Level FlightAware ADS-B
Sat 02:35:56 PM 32.3460 -106.1540 283° West 409 471 40,000  Level FlightAware ADS-B
Sat 02:36:37 PM 32.3650 -106.2560 282° West 409 471 40,000  Level FlightAware ADS-B
Sat 02:37:17 PM 32.3820 -106.3430 283° West 410 472 40,000  Level FlightAware ADS-B
Sat 02:37:57 PM 32.3990 -106.4290 283° West 410 472 40,000  Level FlightAware ADS-B
Sat 02:38:37 PM 32.4160 -106.5170 283° West 410 472 40,000  Level FlightAware ADS-B
Sat 02:39:22 PM 32.4340 -106.6140 282° West 410 472 40,000  Level FlightAware ADS-B
Sat 02:40:02 PM 32.4510 -106.7010 283° West 409 471 40,000  Level FlightAware ADS-B
Sat 02:40:42 PM 32.4670 -106.7880 282° West 411 473 40,000  Level FlightAware ADS-B
Sat 02:41:27 PM 32.4860 -106.8870 283° West 412 474 40,000  Level FlightAware ADS-B
Sat 02:42:12 PM 32.5050 -106.9860 283° West 413 475 40,000  Level FlightAware ADS-B
Sat 02:42:49 PM 32.5180 -107.0560 282° West 414 476 40,000  Level FlightAware ADS-B
Sat 02:43:37 PM 32.5370 -107.1600 282° West 415 478 40,000  Level FlightAware ADS-B
Sat 02:44:13 PM 32.5490 -107.2280 282° West 415 478 40,000  Level FlightAware ADS-B
Sat 02:45:01 PM 32.5650 -107.3190 282° West 415 478 40,000  Level FlightAware ADS-B
Sat 02:45:36 PM 32.5770 -107.3850 282° West 415 478 40,000  Level FlightAware ADS-B
Sat 02:46:39 PM 32.5980 -107.5050 282° West 415 478 40,000  Level FlightAware ADS-B
Sat 02:47:14 PM 32.6100 -107.5710 282° West 415 478 40,000  Level FlightAware ADS-B
Sat 02:48:02 PM 32.6270 -107.6620 283° West 415 478 40,000  Level FlightAware ADS-B
Sat 02:48:38 PM 32.6390 -107.7300 282° West 415 478 40,000  Level FlightAware ADS-B
Sat 02:49:41 PM 32.6600 -107.8500 282° West 415 478 40,000  Level FlightAware ADS-B
Sat 02:50:16 PM 32.6720 -107.9160 282° West 415 478 40,000  Level FlightAware ADS-B
Sat 02:50:59 PM 32.7230 -108.1800 283° West 428 493 40,000  Level FlightAware ADS-B
Sat 02:51:39 PM 32.7390 -108.2710 282° West 421 484 40,000  Level FlightAware ADS-B
Sat 02:52:29 PM 32.7590 -108.3850 282° West 413 475 40,000  Level FlightAware ADS-B
Sat 02:53:10 PM 32.7720 -108.4640 281° West 413 475 40,000  Level FlightAware ADS-B
Sat 02:53:53 PM 32.7920 -108.5710 283° West 407 468 40,000  Level FlightAware ADS-B
Sat 02:54:33 PM 32.8060 -108.6570 281° West 406 467 40,000  Level FlightAware ADS-B
Sat 02:55:15 PM 32.8220 -108.7480 282° West 406 467 40,000  Level FlightAware ADS-B
Sat 02:55:55 PM 32.8370 -108.8370 281° West 405 466 40,000  Level FlightAware ADS-B
Sat 02:56:39 PM 32.8540 -108.9320 282° West 406 467 40,000  Level FlightAware ADS-B
Sat 02:57:19 PM 32.8690 -109.0220 281° West 415 478 40,000  Level FlightAware ADS-B
Sat 02:58:03 PM 32.8860 -109.1210 282° West 425 489 40,000  Level FlightAware ADS-B
Sat 02:58:43 PM 32.9010 -109.2130 281° West 430 495 40,000  Level FlightAware ADS-B
Sat 02:59:27 PM 32.9180 -109.3130 281° West 430 495 40,000  Level FlightAware ADS-B
Sat 03:00:11 PM 32.9350 -109.4160 281° West 432 497 40,000  Level FlightAware ADS-B
Sat 03:00:51 PM 32.9510 -109.5110 281° West 435 501 40,000  Level FlightAware ADS-B
Sat 03:01:33 PM 32.9670 -109.6070 281° West 433 498 40,000  Level FlightAware ADS-B
Sat 03:02:13 PM 32.9830 -109.7020 281° West 433 498 40,000  Level FlightAware ADS-B
Sat 03:02:55 PM 32.9980 -109.7990 280° West 433 498 40,000  Level FlightAware ADS-B
Sat 03:03:41 PM 33.0160 -109.9080 281° West 434 499 40,000  Level FlightAware ADS-B
Sat 03:04:21 PM 33.0310 -110.0010 281° West 429 494 40,000  Level FlightAware ADS-B
Sat 03:05:03 PM 33.0470 -110.0980 281° West 427 491 40,000  Level FlightAware ADS-B
Sat 03:05:43 PM 33.0610 -110.1890 280° West 427 491 40,000  Level FlightAware ADS-B
Sat 03:06:27 PM 33.0780 -110.2910 281° West 427 491 40,000  Level FlightAware ADS-B
Sat 03:07:23 PM 33.0980 -110.4210 280° West 417 480 40,000  Level FlightAware ADS-B
Sat 03:08:05 PM 33.1130 -110.5130 281° West 411 473 40,000  Level FlightAware ADS-B
Sat 03:08:47 PM 33.1280 -110.6070 281° West 408 470 40,000  Level FlightAware ADS-B
Sat 03:09:27 PM 33.1410 -110.6940 280° West 405 466 40,000  Level FlightAware ADS-B
Sat 03:10:09 PM 33.1560 -110.7870 281° West 406 467 40,000  Level FlightAware ADS-B
Sat 03:10:51 PM 33.1700 -110.8810 280° West 414 476 40,000  Level FlightAware ADS-B
Sat 03:11:50 PM 33.1900 -111.0120 280° West 419 482 40,000  Level FlightAware ADS-B
Sat 03:12:30 PM 33.2040 -111.1040 280° West 422 486 40,000  Level FlightAware ADS-B
Sat 03:13:12 PM 33.2190 -111.1990 281° West 423 487 40,000  Level FlightAware ADS-B
Sat 03:13:54 PM 33.2330 -111.2960 280° West 424 488 40,000  Level FlightAware ADS-B
Sat 03:14:37 PM 33.2480 -111.3940 280° West 426 490 40,000  Level FlightAware ADS-B
Sat 03:15:20 PM 33.2630 -111.4950 280° West 427 491 40,000  Level FlightAware ADS-B
Sat 03:16:00 PM 33.2770 -111.5880 280° West 426 490 40,000  Level FlightAware ADS-B
Sat 03:16:44 PM 33.2920 -111.6880 280° West 422 486 40,000  Level FlightAware ADS-B
Sat 03:17:26 PM 33.3060 -111.7840 280° West 416 479 40,000  Level FlightAware ADS-B
Sat 03:18:06 PM 33.3190 -111.8730 280° West 414 476 40,000  Level FlightAware ADS-B
Sat 03:18:48 PM 33.3330 -111.9700 280° West 414 476 40,000  Level FlightAware ADS-B
Sat 03:19:32 PM 33.3460 -112.0640 279° West 414 476 40,000  Level FlightAware ADS-B
Sat 03:20:08 PM 33.3590 -112.1500 280° West 415 478 40,000  Level FlightAware ADS-B
Sat 03:20:54 PM 33.3740 -112.2550 280° West 415 478 40,000  Level FlightAware ADS-B
Sat 03:21:36 PM 33.3870 -112.3510 279° West 415 478 40,000  Level FlightAware ADS-B
Sat 03:22:14 PM 33.3990 -112.4360 280° West 414 476 40,000  Level FlightAware ADS-B
Sat 03:23:00 PM 33.4140 -112.5400 280° West 413 475 40,000  Level FlightAware ADS-B
Sat 03:23:43 PM 33.4270 -112.6350 279° West 413 475 40,000  Level FlightAware ADS-B
Sat 03:24:23 PM 33.4400 -112.7270 280° West 413 475 40,000  Level FlightAware ADS-B
Sat 03:25:07 PM 33.4560 -112.8260 281° West 414 476 40,000  Level FlightAware ADS-B
Sat 03:25:49 PM 33.4850 -112.9160 291° West 418 481 40,000  Level FlightAware ADS-B
Sat 03:26:29 PM 33.5160 -113.0000 294° West 418 481 40,000  Level FlightAware ADS-B
Sat 03:27:14 PM 33.5510 -113.0940 294° West 417 480 40,000  Level FlightAware ADS-B
Sat 03:27:55 PM 33.5820 -113.1820 293° West 416 479 40,000  Level FlightAware ADS-B
Sat 03:28:35 PM 33.6110 -113.2670 292° West 416 479 40,000  Level FlightAware ADS-B
Sat 03:29:21 PM 33.6460 -113.3640 293° West 415 478 40,000  Level FlightAware ADS-B
Sat 03:30:01 PM 33.6750 -113.4480 293° West 415 478 40,000  Level FlightAware ADS-B
Sat 03:30:43 PM 33.7080 -113.5390 294° West 415 478 40,000  Level FlightAware ADS-B
Sat 03:31:13 PM 33.7290 -113.6010 292° West 414 476 40,000  Level FlightAware ADS-B
Sat 03:31:53 PM 33.7590 -113.6860 293° West 414 476 40,000  Level FlightAware ADS-B
Sat 03:32:33 PM 33.7890 -113.7710 293° West 411 473 40,000  Level FlightAware ADS-B
Sat 03:33:13 PM 33.8180 -113.8560 292° West 410 472 40,000  Level FlightAware ADS-B
Sat 03:33:59 PM 33.8520 -113.9520 293° West 411 473 40,000  Level FlightAware ADS-B
Sat 03:34:41 PM 33.8750 -114.0440 287° West 408 470 40,000  Level FlightAware ADS-B
Sat 03:35:20 PM 33.8810 -114.1300 275° West 407 468 40,000  Level FlightAware ADS-B
Sat 03:36:06 PM 33.8840 -114.2100 273° West 407 468 40,000  Level FlightAware ADS-B
Sat 03:37:03 PM 33.8860 -114.3320 271° West 407 468 40,000  Level FlightAware ADS-B
Sat 03:37:41 PM 33.8900 -114.4500 272° West 407 468 40,000  Level FlightAware ADS-B
Sat 03:38:48 PM 33.8950 -114.5850 273° West 408 470 40,000  Level FlightAware ADS-B
Sat 03:39:27 PM 33.8970 -114.6580 272° West 408 470 40,000  Level FlightAware ADS-B
Sat 03:40:18 PM 33.9000 -114.7570 272° West 408 470 40,000  Level FlightAware ADS-B
Sat 03:40:56 PM 33.9020 -114.8300 272° West 408 470 40,000  Level FlightAware ADS-B
Sat 03:41:43 PM 33.9050 -114.9210 272° West 408 470 40,000  Level FlightAware ADS-B
Sat 03:42:19 PM 33.9070 -114.9910 272° West 408 470 40,000  Level FlightAware ADS-B
Sat 03:42:58 PM 33.9090 -115.0660 272° West 408 470 40,000  Level FlightAware ADS-B
Sat 03:43:45 PM 33.9120 -115.1570 272° West 408 470 40,000  Level FlightAware ADS-B
Sat 03:44:23 PM 33.9140 -115.2300 272° West 408 470 40,000 -488 Level FlightAware ADS-B
Sat 03:45:11 PM 33.9200 -115.4590 272° West 408 470 39,300 -506 Descending FlightAware ADS-B
Sat 03:45:46 PM 33.9210 -115.5270 271° West 408 470 39,300  Level FlightAware ADS-B
Sat 03:46:36 PM 33.9230 -115.6240 271° West 408 470 39,300 -2,413 Level FlightAware ADS-B
Sat 03:47:18 PM 33.9290 -115.7630 273° West 426 490 35,600 -3,520 Descending FlightAware ADS-B
Sat 03:47:51 PM 33.9310 -115.8390 272° West 430 495 34,900 -1,286 Descending FlightAware ADS-B
Sat 03:48:42 PM 33.9340 -115.9660 272° West 437 503 33,800 -1,516 Descending FlightAware ADS-B
Sat 03:49:22 PM 33.9360 -116.0670 271° West 445 512 32,600 -2,289 Descending FlightAware ADS-B
Sat 03:49:58 PM 33.9380 -116.1570 272° West 447 514 30,900 -2,286 Descending FlightAware ADS-B
Sat 03:50:46 PM 33.9400 -116.2710 271° West 431 496 29,400 -1,814 Descending FlightAware ADS-B
Sat 03:51:24 PM 33.9420 -116.3580 272° West 405 466 28,300 -1,814 Descending FlightAware ADS-B
Sat 03:52:12 PM 33.9440 -116.4660 271° West 382 440 26,800 -1,953 Descending FlightAware ADS-B
Sat 03:52:50 PM 33.9450 -116.5450 271° West 374 430 25,500 -2,000 Descending FlightAware ADS-B
Sat 03:53:30 PM 33.9470 -116.6270 272° West 384 442 24,200 -1,953 Descending FlightAware ADS-B
Sat 03:54:16 PM 33.9490 -116.7250 271° West 379 436 22,700 -1,857 Descending FlightAware ADS-B
Sat 03:54:54 PM 33.9500 -116.8060 271° West 369 425 21,600 -1,535 Descending FlightAware ADS-B
Sat 03:55:42 PM 33.9510 -116.9000 271° West 344 396 20,500 -1,568 Descending FlightAware ADS-B
Sat 03:56:22 PM 33.9520 -116.9760 271° West 339 390 19,300 -1,857 Descending FlightAware ADS-B
Sat 03:57:06 PM 33.9540 -117.0580 272° West 334 384 17,900 -1,643 Descending FlightAware ADS-B
Sat 03:57:46 PM 33.9530 -117.1280 269° West 328 377 17,000 -659 Descending FlightAware ADS-B
Sat 03:58:28 PM 33.9460 -117.2080 264° West 325 374 17,000  Level FlightAware ADS-B
Sat 03:59:12 PM 33.9400 -117.2860 265° West 327 376 17,000  Level FlightAware ADS-B
Sat 03:59:52 PM 33.9340 -117.3570 264° West 319 367 17,000 -73 Level FlightAware ADS-B
Sat 04:00:34 PM 33.9510 -117.4290 286° West 312 359 16,900 -1,214 Descending FlightAware ADS-B
Sat 04:01:16 PM 33.9730 -117.4920 293° West 301 346 15,300 -2,721 Descending FlightAware ADS-B
Sat 04:02:00 PM 33.9990 -117.5620 294° West 295 339 13,000 -3,000 Descending FlightAware ADS-B
Sat 04:02:38 PM 34.0120 -117.6200 285° West 291 335 11,200 -2,154 Descending FlightAware ADS-B
Sat 04:03:18 PM 34.0070 -117.6850 265° West 286 329 10,200 -1,378 Descending FlightAware ADS-B
Sat 04:03:52 PM 34.0020 -117.7380 264° West 282 325 9,500 -1,300 Descending FlightAware ADS-B
Sat 04:04:18 PM 33.9980 -117.7780 263° West 280 322 8,900 -1,444 Descending FlightAware ADS-B
Sat 04:04:46 PM 33.9930 -117.8230 262° West 279 321 8,200 -1,222 Descending FlightAware ADS-B
Sat 04:05:12 PM 33.9890 -117.8620 263° West 267 307 7,800 -982 Descending FlightAware ADS-B
Sat 04:05:41 PM 33.9850 -117.9030 263° West 253 291 7,300 -1,119 Descending FlightAware ADS-B
Sat 04:06:11 PM 33.9810 -117.9460 264° West 250 288 6,700 -1,241 Descending FlightAware ADS-B
Sat 04:06:39 PM 33.9770 -117.9850 263° West 252 290 6,100 -1,350 Descending FlightAware ADS-B
Sat 04:06:51 PM 33.9760 -118.0010 266° West 247 284 5,800 -1,143 Descending FlightAware ADS-B
Sat 04:07:21 PM 33.9720 -118.0390 263° West 219 252 5,300 -724 Descending FlightAware ADS-B
Sat 04:07:49 PM 33.9690 -118.0710 264° West 201 231 5,100 -545 Descending FlightAware ADS-B
Sat 04:08:05 PM 33.9670 -118.0890 262° West 197 227 4,900 -667 Descending FlightAware ADS-B
Sat 04:08:25 PM 33.9650 -118.1100 263° West 195 224 4,700 -947 Descending FlightAware ADS-B
Sat 04:08:43 PM 33.9620 -118.1300 260° West 194 223 4,300 -1,125 Descending FlightAware ADS-B
Sat 04:09:13 PM 33.9590 -118.1610 263° West 187 215 3,800 -1,000 Descending FlightAware ADS-B
Sat 04:09:43 PM 33.9560 -118.1920 263° West 184 212 3,300 -828 Descending FlightAware ADS-B
Sat 04:10:11 PM 33.9530 -118.2200 263° West 183 211 3,000 -692 Descending FlightAware ADS-B
Sat 04:10:35 PM 33.9510 -118.2430 264° West 182 209 2,700 -900 Descending FlightAware ADS-B
Sat 04:10:51 PM 33.9500 -118.2590 266° West 178 205 2,400 -1,119 Descending FlightAware ADS-B
Sat 04:11:34 PM 33.9460 -118.2980 263° West 144 166 1,600 -985 Descending FlightAware ADS-B
Sat 04:11:58 PM 33.9440 -118.3180 263° West 141 162 1,300 -750 Descending FlightAware ADS-B
Sat 04:12:30 PM 33.9420 -118.3420 264° West 136 157 900 -800 Descending FlightAware ADS-B
Sat 04:12:58 PM 33.9390 -118.3630 260° West 128 147 500 -706 Descending FlightAware ADS-B
Sat 04:13:21 PM 33.9380 -118.3790 266° West 136 157 300 -245 Descending FlightAware ADS-B
Sat 04:13:47 PM 33.9370 -118.3960 266° West 136 157 300  Level FlightAware ADS-B

Login

Don't have an account? Register now (free) for customized features, flight alerts, and more!